sensor_id;sensor_type;location;lat;lon;timestamp;temperature;humidity
17307;DHT22;8771;48.048;7.682;2023-05-27T09:31:07;23.60;59.70
17307;DHT22;8771;48.048;7.682;2023-05-27T09:36:09;23.80;59.30
17307;DHT22;8771;48.048;7.682;2023-05-27T09:41:11;23.90;59.30
17307;DHT22;8771;48.048;7.682;2023-05-27T09:46:15;23.90;59.30
17307;DHT22;8771;48.048;7.682;2023-05-27T09:51:18;24.00;59.30
17307;DHT22;8771;48.048;7.682;2023-05-27T09:56:20;23.80;59.30
17307;DHT22;8771;48.048;7.682;2023-05-27T10:01:26;23.70;59.40
17307;DHT22;8771;48.048;7.682;2023-05-27T10:06:29;23.70;59.40
17307;DHT22;8771;48.048;7.682;2023-05-27T10:11:33;23.80;59.40
17307;DHT22;8771;48.048;7.682;2023-05-27T10:16:39;23.70;59.30
17307;DHT22;8771;48.048;7.682;2023-05-27T10:21:43;23.70;59.20
17307;DHT22;8771;48.048;7.682;2023-05-27T10:26:46;23.70;59.20
17307;DHT22;8771;48.048;7.682;2023-05-27T10:31:51;23.90;59.20
17307;DHT22;8771;48.048;7.682;2023-05-27T10:36:58;24.10;58.90
17307;DHT22;8771;48.048;7.682;2023-05-27T10:42:01;24.40;58.60
17307;DHT22;8771;48.048;7.682;2023-05-27T10:47:08;24.60;58.50
17307;DHT22;8771;48.048;7.682;2023-05-27T10:52:11;24.50;58.50
17307;DHT22;8771;48.048;7.682;2023-05-27T10:57:15;24.50;58.60
17307;DHT22;8771;48.048;7.682;2023-05-27T11:02:21;24.40;58.60
17307;DHT22;8771;48.048;7.682;2023-05-27T11:07:23;24.50;58.70
17307;DHT22;8771;48.048;7.682;2023-05-27T11:12:26;24.50;58.60
17307;DHT22;8771;48.048;7.682;2023-05-27T11:17:29;24.60;58.60
17307;DHT22;8771;48.048;7.682;2023-05-27T11:22:31;24.60;58.50
17307;DHT22;8771;48.048;7.682;2023-05-27T11:27:36;24.60;58.60
17307;DHT22;8771;48.048;7.682;2023-05-27T11:32:40;24.60;58.50
17307;DHT22;8771;48.048;7.682;2023-05-27T11:37:45;24.50;58.50
17307;DHT22;8771;48.048;7.682;2023-05-27T11:42:48;24.60;58.50
17307;DHT22;8771;48.048;7.682;2023-05-27T11:47:51;24.60;58.40
17307;DHT22;8771;48.048;7.682;2023-05-27T11:52:56;24.70;58.40
17307;DHT22;8771;48.048;7.682;2023-05-27T11:57:58;24.80;58.30
17307;DHT22;8771;48.048;7.682;2023-05-27T12:03:01;24.90;58.20
17307;DHT22;8771;48.048;7.682;2023-05-27T12:08:03;25.00;58.10
17307;DHT22;8771;48.048;7.682;2023-05-27T12:13:06;25.10;58.00
17307;DHT22;8771;48.048;7.682;2023-05-27T12:18:10;25.10;58.00
17307;DHT22;8771;48.048;7.682;2023-05-27T12:23:12;25.20;57.90
17307;DHT22;8771;48.048;7.682;2023-05-27T12:28:13;25.20;57.90
17307;DHT22;8771;48.048;7.682;2023-05-27T12:33:17;25.30;58.50
17307;DHT22;8771;48.048;7.682;2023-05-27T12:38:19;25.30;57.90
17307;DHT22;8771;48.048;7.682;2023-05-27T12:43:21;25.50;57.80
17307;DHT22;8771;48.048;7.682;2023-05-27T12:48:25;25.60;57.70
17307;DHT22;8771;48.048;7.682;2023-05-27T12:53:27;25.80;57.60
17307;DHT22;8771;48.048;7.682;2023-05-27T12:58:29;25.90;57.50
17307;DHT22;8771;48.048;7.682;2023-05-27T13:03:32;25.80;57.60
17307;DHT22;8771;48.048;7.682;2023-05-27T13:08:34;25.90;57.70
17307;DHT22;8771;48.048;7.682;2023-05-27T13:13:36;25.90;57.60
17307;DHT22;8771;48.048;7.682;2023-05-27T13:18:39;25.80;57.70
17307;DHT22;8771;48.048;7.682;2023-05-27T13:23:41;25.80;57.70
17307;DHT22;8771;48.048;7.682;2023-05-27T13:28:43;25.80;57.70
17307;DHT22;8771;48.048;7.682;2023-05-27T13:33:46;25.90;57.70
17307;DHT22;8771;48.048;7.682;2023-05-27T13:38:48;26.00;57.70
17307;DHT22;8771;48.048;7.682;2023-05-27T13:43:50;25.90;57.60
17307;DHT22;8771;48.048;7.682;2023-05-27T13:48:54;26.00;57.70
17307;DHT22;8771;48.048;7.682;2023-05-27T13:53:56;26.10;57.60
17307;DHT22;8771;48.048;7.682;2023-05-27T13:58:59;26.10;57.50
17307;DHT22;8771;48.048;7.682;2023-05-27T14:04:05;26.20;57.50
17307;DHT22;8771;48.048;7.682;2023-05-27T14:09:07;26.20;57.40
17307;DHT22;8771;48.048;7.682;2023-05-27T14:14:09;26.20;57.50
17307;DHT22;8771;48.048;7.682;2023-05-27T14:19:12;26.30;57.50
17307;DHT22;8771;48.048;7.682;2023-05-27T14:24:14;26.30;57.50
17307;DHT22;8771;48.048;7.682;2023-05-27T14:29:17;26.30;57.50
17307;DHT22;8771;48.048;7.682;2023-05-27T14:34:20;26.30;57.50
17307;DHT22;8771;48.048;7.682;2023-05-27T14:39:22;26.30;57.40
17307;DHT22;8771;48.048;7.682;2023-05-27T14:44:24;26.30;57.40
17307;DHT22;8771;48.048;7.682;2023-05-27T14:49:27;26.30;57.40
17307;DHT22;8771;48.048;7.682;2023-05-27T14:54:32;26.30;57.40
17307;DHT22;8771;48.048;7.682;2023-05-27T14:59:34;26.30;57.40
17307;DHT22;8771;48.048;7.682;2023-05-27T15:04:37;26.30;57.40
17307;DHT22;8771;48.048;7.682;2023-05-27T15:09:50;26.30;57.40
17307;DHT22;8771;48.048;7.682;2023-05-27T15:14:52;26.40;57.40
17307;DHT22;8771;48.048;7.682;2023-05-27T15:19:59;26.40;57.40
17307;DHT22;8771;48.048;7.682;2023-05-27T15:25:03;26.30;57.30
17307;DHT22;8771;48.048;7.682;2023-05-27T15:30:06;26.30;57.40
17307;DHT22;8771;48.048;7.682;2023-05-27T15:35:09;26.30;57.40
17307;DHT22;8771;48.048;7.682;2023-05-27T15:40:12;26.30;57.40
17307;DHT22;8771;48.048;7.682;2023-05-27T15:45:14;26.30;57.40
17307;DHT22;8771;48.048;7.682;2023-05-27T15:50:17;26.30;57.40
17307;DHT22;8771;48.048;7.682;2023-05-27T15:55:20;26.20;57.40
17307;DHT22;8771;48.048;7.682;2023-05-27T16:00:22;26.20;57.50
17307;DHT22;8771;48.048;7.682;2023-05-27T16:05:24;26.10;57.40
17307;DHT22;8771;48.048;7.682;2023-05-27T16:10:29;26.10;57.50
17307;DHT22;8771;48.048;7.682;2023-05-27T16:15:31;26.00;57.50
17307;DHT22;8771;48.048;7.682;2023-05-27T16:20:33;26.00;57.60
17307;DHT22;8771;48.048;7.682;2023-05-27T16:25:36;25.90;57.60
17307;DHT22;8771;48.048;7.682;2023-05-27T16:30:38;25.80;57.60
17307;DHT22;8771;48.048;7.682;2023-05-27T16:35:43;25.70;57.60
17307;DHT22;8771;48.048;7.682;2023-05-27T16:40:47;25.70;57.60
17307;DHT22;8771;48.048;7.682;2023-05-27T16:45:49;25.70;57.60
17307;DHT22;8771;48.048;7.682;2023-05-27T16:50:51;25.70;57.60
17307;DHT22;8771;48.048;7.682;2023-05-27T16:55:54;25.70;57.50
17307;DHT22;8771;48.048;7.682;2023-05-27T17:00:57;25.70;57.60
17307;DHT22;8771;48.048;7.682;2023-05-27T17:06:00;25.60;57.60
17307;DHT22;8771;48.048;7.682;2023-05-27T17:11:03;25.60;57.70
17307;DHT22;8771;48.048;7.682;2023-05-27T17:16:06;25.50;57.70
17307;DHT22;8771;48.048;7.682;2023-05-27T17:21:08;25.40;57.70
17307;DHT22;8771;48.048;7.682;2023-05-27T17:26:11;25.30;57.80
17307;DHT22;8771;48.048;7.682;2023-05-27T17:31:13;25.20;57.80
17307;DHT22;8771;48.048;7.682;2023-05-27T17:36:15;25.00;57.90
17307;DHT22;8771;48.048;7.682;2023-05-27T17:41:21;24.80;57.90
17307;DHT22;8771;48.048;7.682;2023-05-27T17:46:23;24.80;58.00
17307;DHT22;8771;48.048;7.682;2023-05-27T17:51:25;24.70;58.00
17307;DHT22;8771;48.048;7.682;2023-05-27T17:56:29;24.60;58.00
17307;DHT22;8771;48.048;7.682;2023-05-27T18:01:31;24.50;58.00
17307;DHT22;8771;48.048;7.682;2023-05-27T18:06:33;24.40;58.10
17307;DHT22;8771;48.048;7.682;2023-05-27T18:11:38;24.30;58.20
17307;DHT22;8771;48.048;7.682;2023-05-27T18:16:40;24.20;58.30
17307;DHT22;8771;48.048;7.682;2023-05-27T18:21:43;24.10;58.30
17307;DHT22;8771;48.048;7.682;2023-05-27T18:26:46;24.00;58.30
17307;DHT22;8771;48.048;7.682;2023-05-27T18:31:48;23.90;58.30
17307;DHT22;8771;48.048;7.682;2023-05-27T18:36:51;23.90;58.40
17307;DHT22;8771;48.048;7.682;2023-05-27T18:41:54;23.80;58.40
17307;DHT22;8771;48.048;7.682;2023-05-27T18:46:56;23.80;58.50
17307;DHT22;8771;48.048;7.682;2023-05-27T18:51:58;23.70;58.50
17307;DHT22;8771;48.048;7.682;2023-05-27T18:57:03;23.70;58.60
17307;DHT22;8771;48.048;7.682;2023-05-27T19:02:06;23.60;59.20
17307;DHT22;8771;48.048;7.682;2023-05-27T19:07:12;23.50;58.70
17307;DHT22;8771;48.048;7.682;2023-05-27T19:12:15;23.40;58.60
17307;DHT22;8771;48.048;7.682;2023-05-27T19:17:17;23.40;58.70
17307;DHT22;8771;48.048;7.682;2023-05-27T19:22:19;23.30;58.70
17307;DHT22;8771;48.048;7.682;2023-05-27T19:27:23;23.30;58.70
17307;DHT22;8771;48.048;7.682;2023-05-27T19:32:25;23.20;58.80
17307;DHT22;8771;48.048;7.682;2023-05-27T19:37:27;23.10;58.80
17307;DHT22;8771;48.048;7.682;2023-05-27T19:42:30;23.10;58.90
17307;DHT22;8771;48.048;7.682;2023-05-27T19:47:32;23.00;58.90
17307;DHT22;8771;48.048;7.682;2023-05-27T19:52:34;22.90;59.00
17307;DHT22;8771;48.048;7.682;2023-05-27T19:57:37;22.80;59.00
17307;DHT22;8771;48.048;7.682;2023-05-27T20:02:40;22.80;59.20
17307;DHT22;8771;48.048;7.682;2023-05-27T20:07:42;22.70;59.20
17307;DHT22;8771;48.048;7.682;2023-05-27T20:12:46;22.60;59.30
17307;DHT22;8771;48.048;7.682;2023-05-27T20:17:49;22.50;59.40
17307;DHT22;8771;48.048;7.682;2023-05-27T20:22:51;22.40;59.50
17307;DHT22;8771;48.048;7.682;2023-05-27T20:27:55;22.30;59.50
17307;DHT22;8771;48.048;7.682;2023-05-27T20:32:57;22.30;59.60
17307;DHT22;8771;48.048;7.682;2023-05-27T20:38:01;22.20;59.60
17307;DHT22;8771;48.048;7.682;2023-05-27T20:43:05;22.10;59.60
17307;DHT22;8771;48.048;7.682;2023-05-27T20:48:07;22.00;59.70
17307;DHT22;8771;48.048;7.682;2023-05-27T20:53:09;21.90;59.80
17307;DHT22;8771;48.048;7.682;2023-05-27T20:58:13;21.70;59.80
17307;DHT22;8771;48.048;7.682;2023-05-27T21:03:15;21.60;60.00
17307;DHT22;8771;48.048;7.682;2023-05-27T21:08:17;21.50;60.00
17307;DHT22;8771;48.048;7.682;2023-05-27T21:13:20;21.40;60.10
17307;DHT22;8771;48.048;7.682;2023-05-27T21:18:22;21.30;60.20
17307;DHT22;8771;48.048;7.682;2023-05-27T21:23:24;21.20;60.30
17307;DHT22;8771;48.048;7.682;2023-05-27T21:28:28;21.10;60.40
17307;DHT22;8771;48.048;7.682;2023-05-27T21:33:30;20.90;60.40
17307;DHT22;8771;48.048;7.682;2023-05-27T21:38:33;20.80;60.50
17307;DHT22;8771;48.048;7.682;2023-05-27T21:43:36;20.70;60.60
17307;DHT22;8771;48.048;7.682;2023-05-27T21:48:38;20.60;60.60
17307;DHT22;8771;48.048;7.682;2023-05-27T21:53:41;20.50;60.70
17307;DHT22;8771;48.048;7.682;2023-05-27T21:58:45;20.30;60.70
17307;DHT22;8771;48.048;7.682;2023-05-27T22:03:47;20.20;60.80
17307;DHT22;8771;48.048;7.682;2023-05-27T22:08:49;20.10;60.90
17307;DHT22;8771;48.048;7.682;2023-05-27T22:13:52;20.00;61.00
17307;DHT22;8771;48.048;7.682;2023-05-27T22:18:54;19.80;61.20
17307;DHT22;8771;48.048;7.682;2023-05-27T22:23:56;19.70;61.40
17307;DHT22;8771;48.048;7.682;2023-05-27T22:28:59;19.60;61.60
17307;DHT22;8771;48.048;7.682;2023-05-27T22:34:02;19.50;61.60
17307;DHT22;8771;48.048;7.682;2023-05-27T22:39:04;19.40;61.70
17307;DHT22;8771;48.048;7.682;2023-05-27T22:44:10;19.30;61.70
17307;DHT22;8771;48.048;7.682;2023-05-27T22:49:12;19.10;61.90
17307;DHT22;8771;48.048;7.682;2023-05-27T22:54:14;19.00;62.10
17307;DHT22;8771;48.048;7.682;2023-05-27T22:59:18;18.90;62.10
17307;DHT22;8771;48.048;7.682;2023-05-27T23:04:20;18.90;62.10
17307;DHT22;8771;48.048;7.682;2023-05-27T23:09:23;18.80;62.10
17307;DHT22;8771;48.048;7.682;2023-05-27T23:14:26;18.60;62.20
17307;DHT22;8771;48.048;7.682;2023-05-27T23:19:28;18.40;62.40
17307;DHT22;8771;48.048;7.682;2023-05-27T23:24:30;18.30;61.90
17307;DHT22;8771;48.048;7.682;2023-05-27T23:29:34;18.30;62.50
17307;DHT22;8771;48.048;7.682;2023-05-27T23:34:36;18.20;62.60
17307;DHT22;8771;48.048;7.682;2023-05-27T23:39:38;18.10;62.60
17307;DHT22;8771;48.048;7.682;2023-05-27T23:44:41;18.00;62.60
17307;DHT22;8771;48.048;7.682;2023-05-27T23:49:43;17.90;62.60
17307;DHT22;8771;48.048;7.682;2023-05-27T23:54:46;17.80;62.80
17307;DHT22;8771;48.048;7.682;2023-05-27T23:59:49;17.80;62.90
